sensor_id;sensor_type;location;lat;lon;timestamp;temperature;humidity
21282;DHT22;10800;53.096;18.328;2023-08-08T00:05:15;14.10;99.90
21282;DHT22;10800;53.096;18.328;2023-08-08T00:10:27;14.10;99.90
21282;DHT22;10800;53.096;18.328;2023-08-08T00:15:37;14.00;99.90
21282;DHT22;10800;53.096;18.328;2023-08-08T00:26:08;13.90;99.90
21282;DHT22;10800;53.096;18.328;2023-08-08T00:31:18;13.90;99.90
21282;DHT22;10800;53.096;18.328;2023-08-08T00:36:34;13.90;99.90
21282;DHT22;10800;53.096;18.328;2023-08-08T00:41:48;13.80;99.90
21282;DHT22;10800;53.096;18.328;2023-08-08T00:47:02;13.70;99.90
21282;DHT22;10800;53.096;18.328;2023-08-08T00:52:13;13.60;99.90
21282;DHT22;10800;53.096;18.328;2023-08-08T00:57:40;13.60;99.90
21282;DHT22;10800;53.096;18.328;2023-08-08T01:02:51;13.60;99.90
21282;DHT22;10800;53.096;18.328;2023-08-08T01:08:07;13.50;99.90
21282;DHT22;10800;53.096;18.328;2023-08-08T01:13:33;13.60;99.90
21282;DHT22;10800;53.096;18.328;2023-08-08T01:18:48;13.50;99.90
21282;DHT22;10800;53.096;18.328;2023-08-08T01:24:00;13.40;99.90
21282;DHT22;10800;53.096;18.328;2023-08-08T01:29:04;13.40;99.90
21282;DHT22;10800;53.096;18.328;2023-08-08T01:34:12;13.40;99.90
21282;DHT22;10800;53.096;18.328;2023-08-08T01:39:26;13.40;99.90
21282;DHT22;10800;53.096;18.328;2023-08-08T01:44:41;13.30;99.90
21282;DHT22;10800;53.096;18.328;2023-08-08T01:50:32;13.40;99.90
21282;DHT22;10800;53.096;18.328;2023-08-08T01:55:47;13.40;99.90
21282;DHT22;10800;53.096;18.328;2023-08-08T02:00:59;13.30;99.90
21282;DHT22;10800;53.096;18.328;2023-08-08T02:06:08;13.40;99.90
21282;DHT22;10800;53.096;18.328;2023-08-08T02:11:20;13.30;99.90
21282;DHT22;10800;53.096;18.328;2023-08-08T02:21:58;13.30;99.90
21282;DHT22;10800;53.096;18.328;2023-08-08T02:27:08;13.30;99.90
21282;DHT22;10800;53.096;18.328;2023-08-08T02:32:25;13.40;99.90
21282;DHT22;10800;53.096;18.328;2023-08-08T02:37:40;13.50;99.90
21282;DHT22;10800;53.096;18.328;2023-08-08T02:42:48;13.60;99.90
21282;DHT22;10800;53.096;18.328;2023-08-08T02:48:14;13.60;99.90
21282;DHT22;10800;53.096;18.328;2023-08-08T02:53:22;13.50;99.90
21282;DHT22;10800;53.096;18.328;2023-08-08T02:58:45;13.50;99.90
21282;DHT22;10800;53.096;18.328;2023-08-08T03:03:51;13.40;99.90
21282;DHT22;10800;53.096;18.328;2023-08-08T03:09:23;13.40;99.90
21282;DHT22;10800;53.096;18.328;2023-08-08T03:14:32;13.50;99.90
21282;DHT22;10800;53.096;18.328;2023-08-08T03:19:42;13.50;99.90
21282;DHT22;10800;53.096;18.328;2023-08-08T03:24:53;13.50;99.90
21282;DHT22;10800;53.096;18.328;2023-08-08T03:30:01;13.60;99.90
21282;DHT22;10800;53.096;18.328;2023-08-08T03:35:31;13.60;99.90
21282;DHT22;10800;53.096;18.328;2023-08-08T03:40:39;13.70;99.90
21282;DHT22;10800;53.096;18.328;2023-08-08T03:45:55;13.70;99.90
21282;DHT22;10800;53.096;18.328;2023-08-08T03:51:03;13.80;99.90
21282;DHT22;10800;53.096;18.328;2023-08-08T03:56:09;14.00;99.90
21282;DHT22;10800;53.096;18.328;2023-08-08T04:01:20;14.10;99.90
21282;DHT22;10800;53.096;18.328;2023-08-08T04:06:30;14.20;99.90
21282;DHT22;10800;53.096;18.328;2023-08-08T04:11:59;14.30;99.90
21282;DHT22;10800;53.096;18.328;2023-08-08T04:17:19;14.20;99.90
21282;DHT22;10800;53.096;18.328;2023-08-08T04:22:27;14.20;99.90
21282;DHT22;10800;53.096;18.328;2023-08-08T04:27:36;14.40;99.90
21282;DHT22;10800;53.096;18.328;2023-08-08T04:32:48;14.50;99.90
21282;DHT22;10800;53.096;18.328;2023-08-08T04:37:54;14.50;99.90
21282;DHT22;10800;53.096;18.328;2023-08-08T04:43:06;14.50;99.90
21282;DHT22;10800;53.096;18.328;2023-08-08T04:48:16;14.60;99.90
21282;DHT22;10800;53.096;18.328;2023-08-08T04:53:22;14.50;99.90
21282;DHT22;10800;53.096;18.328;2023-08-08T04:58:31;14.50;99.90
21282;DHT22;10800;53.096;18.328;2023-08-08T05:03:38;14.50;99.90
21282;DHT22;10800;53.096;18.328;2023-08-08T05:08:45;14.60;99.90
21282;DHT22;10800;53.096;18.328;2023-08-08T05:13:51;14.70;99.90
21282;DHT22;10800;53.096;18.328;2023-08-08T05:19:04;14.60;99.90
21282;DHT22;10800;53.096;18.328;2023-08-08T05:24:10;14.60;99.90
21282;DHT22;10800;53.096;18.328;2023-08-08T05:29:20;14.70;99.90
21282;DHT22;10800;53.096;18.328;2023-08-08T05:34:27;14.90;99.90
21282;DHT22;10800;53.096;18.328;2023-08-08T05:39:33;15.00;99.90
21282;DHT22;10800;53.096;18.328;2023-08-08T05:44:42;15.20;99.90
21282;DHT22;10800;53.096;18.328;2023-08-08T05:49:50;15.20;99.90
21282;DHT22;10800;53.096;18.328;2023-08-08T05:54:57;15.60;99.90
21282;DHT22;10800;53.096;18.328;2023-08-08T06:00:09;15.80;99.90
21282;DHT22;10800;53.096;18.328;2023-08-08T06:05:17;15.60;99.90
21282;DHT22;10800;53.096;18.328;2023-08-08T06:10:24;15.50;99.90
21282;DHT22;10800;53.096;18.328;2023-08-08T06:15:36;15.40;99.90
21282;DHT22;10800;53.096;18.328;2023-08-08T06:20:43;15.30;99.90
21282;DHT22;10800;53.096;18.328;2023-08-08T06:25:48;15.40;99.90
21282;DHT22;10800;53.096;18.328;2023-08-08T06:30:54;15.50;99.90
21282;DHT22;10800;53.096;18.328;2023-08-08T06:36:00;15.60;99.90
21282;DHT22;10800;53.096;18.328;2023-08-08T06:41:05;15.60;99.90
21282;DHT22;10800;53.096;18.328;2023-08-08T06:46:11;15.90;99.90
21282;DHT22;10800;53.096;18.328;2023-08-08T06:51:23;16.40;99.90
21282;DHT22;10800;53.096;18.328;2023-08-08T06:56:30;16.90;99.90
21282;DHT22;10800;53.096;18.328;2023-08-08T07:01:36;17.00;99.70
21282;DHT22;10800;53.096;18.328;2023-08-08T07:06:45;16.80;99.70
21282;DHT22;10800;53.096;18.328;2023-08-08T07:11:51;16.90;97.70
21282;DHT22;10800;53.096;18.328;2023-08-08T07:16:57;16.60;98.60
21282;DHT22;10800;53.096;18.328;2023-08-08T07:22:03;16.60;99.60
21282;DHT22;10800;53.096;18.328;2023-08-08T07:27:13;17.30;97.90
21282;DHT22;10800;53.096;18.328;2023-08-08T07:32:18;17.80;95.90
21282;DHT22;10800;53.096;18.328;2023-08-08T07:37:27;18.30;96.40
21282;DHT22;10800;53.096;18.328;2023-08-08T07:42:32;18.70;93.90
21282;DHT22;10800;53.096;18.328;2023-08-08T07:47:46;18.80;92.00
21282;DHT22;10800;53.096;18.328;2023-08-08T07:52:54;18.80;90.70
21282;DHT22;10800;53.096;18.328;2023-08-08T07:58:02;18.90;90.00
21282;DHT22;10800;53.096;18.328;2023-08-08T08:03:13;19.20;90.60
21282;DHT22;10800;53.096;18.328;2023-08-08T08:08:18;19.50;88.30
21282;DHT22;10800;53.096;18.328;2023-08-08T08:13:33;19.30;85.10
21282;DHT22;10800;53.096;18.328;2023-08-08T08:18:39;19.70;85.70
21282;DHT22;10800;53.096;18.328;2023-08-08T08:23:46;18.80;86.20
21282;DHT22;10800;53.096;18.328;2023-08-08T08:28:52;18.00;89.70
21282;DHT22;10800;53.096;18.328;2023-08-08T08:33:57;18.50;89.40
21282;DHT22;10800;53.096;18.328;2023-08-08T08:39:03;18.50;89.10
21282;DHT22;10800;53.096;18.328;2023-08-08T08:44:09;18.80;86.50
21282;DHT22;10800;53.096;18.328;2023-08-08T08:49:16;18.50;87.50
21282;DHT22;10800;53.096;18.328;2023-08-08T08:54:25;18.50;88.30
21282;DHT22;10800;53.096;18.328;2023-08-08T08:59:30;18.40;87.70
21282;DHT22;10800;53.096;18.328;2023-08-08T09:04:37;18.40;87.70
21282;DHT22;10800;53.096;18.328;2023-08-08T09:09:43;18.80;90.00
21282;DHT22;10800;53.096;18.328;2023-08-08T09:15:01;19.00;86.40
21282;DHT22;10800;53.096;18.328;2023-08-08T09:19:57;18.10;88.30
21282;DHT22;10800;53.096;18.328;2023-08-08T09:25:04;18.10;90.30
21282;DHT22;10800;53.096;18.328;2023-08-08T09:30:10;17.70;90.20
21282;DHT22;10800;53.096;18.328;2023-08-08T09:35:16;17.40;91.40
21282;DHT22;10800;53.096;18.328;2023-08-08T09:40:23;17.20;92.10
21282;DHT22;10800;53.096;18.328;2023-08-08T09:45:40;17.20;93.20
21282;DHT22;10800;53.096;18.328;2023-08-08T09:50:58;16.90;92.80
21282;DHT22;10800;53.096;18.328;2023-08-08T09:56:05;17.00;94.40
21282;DHT22;10800;53.096;18.328;2023-08-08T10:01:12;17.10;93.70
21282;DHT22;10800;53.096;18.328;2023-08-08T10:06:19;17.20;96.00
21282;DHT22;10800;53.096;18.328;2023-08-08T10:11:26;17.90;93.20
21282;DHT22;10800;53.096;18.328;2023-08-08T10:16:34;17.90;92.00
21282;DHT22;10800;53.096;18.328;2023-08-08T10:21:48;17.60;92.50
21282;DHT22;10800;53.096;18.328;2023-08-08T10:27:00;17.20;97.00
21282;DHT22;10800;53.096;18.328;2023-08-08T10:32:07;17.20;98.70
21282;DHT22;10800;53.096;18.328;2023-08-08T10:37:15;17.90;96.20
21282;DHT22;10800;53.096;18.328;2023-08-08T10:42:29;19.20;93.20
21282;DHT22;10800;53.096;18.328;2023-08-08T10:47:38;19.90;91.60
21282;DHT22;10800;53.096;18.328;2023-08-08T10:52:55;20.00;85.70
21282;DHT22;10800;53.096;18.328;2023-08-08T10:58:14;20.00;88.70
21282;DHT22;10800;53.096;18.328;2023-08-08T11:03:31;20.40;82.50
21282;DHT22;10800;53.096;18.328;2023-08-08T11:08:41;20.50;82.40
21282;DHT22;10800;53.096;18.328;2023-08-08T11:13:51;20.80;80.00
21282;DHT22;10800;53.096;18.328;2023-08-08T11:18:56;21.00;78.10
21282;DHT22;10800;53.096;18.328;2023-08-08T11:24:04;21.20;75.90
21282;DHT22;10800;53.096;18.328;2023-08-08T11:29:10;21.40;76.10
21282;DHT22;10800;53.096;18.328;2023-08-08T11:34:16;20.90;80.00
21282;DHT22;10800;53.096;18.328;2023-08-08T11:39:23;20.20;79.20
21282;DHT22;10800;53.096;18.328;2023-08-08T11:44:28;19.60;83.60
21282;DHT22;10800;53.096;18.328;2023-08-08T11:49:43;19.50;84.60
21282;DHT22;10800;53.096;18.328;2023-08-08T11:54:52;19.30;84.20
21282;DHT22;10800;53.096;18.328;2023-08-08T11:59:57;20.60;83.00
21282;DHT22;10800;53.096;18.328;2023-08-08T12:05:08;20.20;81.70
21282;DHT22;10800;53.096;18.328;2023-08-08T12:10:22;20.30;83.20
21282;DHT22;10800;53.096;18.328;2023-08-08T12:15:35;21.60;77.40
21282;DHT22;10800;53.096;18.328;2023-08-08T12:20:43;21.90;75.40
21282;DHT22;10800;53.096;18.328;2023-08-08T12:25:49;21.20;77.10
21282;DHT22;10800;53.096;18.328;2023-08-08T12:30:54;20.70;78.70
21282;DHT22;10800;53.096;18.328;2023-08-08T12:36:01;21.50;79.00
21282;DHT22;10800;53.096;18.328;2023-08-08T12:41:06;20.50;78.00
21282;DHT22;10800;53.096;18.328;2023-08-08T12:46:13;19.90;78.90
21282;DHT22;10800;53.096;18.328;2023-08-08T12:51:21;19.50;78.70
21282;DHT22;10800;53.096;18.328;2023-08-08T12:56:26;20.00;81.20
21282;DHT22;10800;53.096;18.328;2023-08-08T13:01:32;20.80;77.70
21282;DHT22;10800;53.096;18.328;2023-08-08T13:06:40;21.10;72.70
21282;DHT22;10800;53.096;18.328;2023-08-08T13:12:06;21.10;73.40
21282;DHT22;10800;53.096;18.328;2023-08-08T13:17:37;21.40;71.60
21282;DHT22;10800;53.096;18.328;2023-08-08T13:22:46;21.70;69.00
21282;DHT22;10800;53.096;18.328;2023-08-08T13:27:58;21.20;70.80
21282;DHT22;10800;53.096;18.328;2023-08-08T13:33:04;20.90;71.90
21282;DHT22;10800;53.096;18.328;2023-08-08T13:38:09;20.30;74.90
21282;DHT22;10800;53.096;18.328;2023-08-08T13:43:36;19.50;80.30
21282;DHT22;10800;53.096;18.328;2023-08-08T13:49:02;18.90;87.90
21282;DHT22;10800;53.096;18.328;2023-08-08T13:54:15;18.80;94.90
21282;DHT22;10800;53.096;18.328;2023-08-08T13:59:41;19.30;94.90
21282;DHT22;10800;53.096;18.328;2023-08-08T14:04:47;19.40;93.40
21282;DHT22;10800;53.096;18.328;2023-08-08T14:09:54;19.30;94.80
21282;DHT22;10800;53.096;18.328;2023-08-08T14:15:02;19.20;95.00
21282;DHT22;10800;53.096;18.328;2023-08-08T14:20:30;20.00;93.80
21282;DHT22;10800;53.096;18.328;2023-08-08T14:25:58;20.20;90.80
21282;DHT22;10800;53.096;18.328;2023-08-08T14:31:10;19.40;92.10
21282;DHT22;10800;53.096;18.328;2023-08-08T14:36:18;18.50;93.50
21282;DHT22;10800;53.096;18.328;2023-08-08T14:41:29;17.90;94.70
21282;DHT22;10800;53.096;18.328;2023-08-08T14:46:43;17.90;97.30
21282;DHT22;10800;53.096;18.328;2023-08-08T14:51:53;18.60;96.50
21282;DHT22;10800;53.096;18.328;2023-08-08T14:57:11;18.40;95.20
21282;DHT22;10800;53.096;18.328;2023-08-08T15:02:56;18.10;96.50
21282;DHT22;10800;53.096;18.328;2023-08-08T15:08:26;18.30;96.60
21282;DHT22;10800;53.096;18.328;2023-08-08T15:13:40;18.20;95.80
21282;DHT22;10800;53.096;18.328;2023-08-08T15:19:01;18.80;95.60
21282;DHT22;10800;53.096;18.328;2023-08-08T15:24:10;18.50;93.40
21282;DHT22;10800;53.096;18.328;2023-08-08T15:29:21;18.30;92.70
21282;DHT22;10800;53.096;18.328;2023-08-08T15:34:31;18.00;93.50
21282;DHT22;10800;53.096;18.328;2023-08-08T15:39:45;18.00;94.00
21282;DHT22;10800;53.096;18.328;2023-08-08T15:44:52;18.00;95.00
21282;DHT22;10800;53.096;18.328;2023-08-08T15:50:29;18.50;95.90
21282;DHT22;10800;53.096;18.328;2023-08-08T15:56:11;18.60;96.10
21282;DHT22;10800;53.096;18.328;2023-08-08T16:01:25;18.50;96.80
21282;DHT22;10800;53.096;18.328;2023-08-08T16:06:55;18.30;98.00
21282;DHT22;10800;53.096;18.328;2023-08-08T16:12:33;18.50;98.40
21282;DHT22;10800;53.096;18.328;2023-08-08T16:18:09;18.80;98.60
21282;DHT22;10800;53.096;18.328;2023-08-08T16:23:39;18.60;96.60
21282;DHT22;10800;53.096;18.328;2023-08-08T16:28:46;18.20;96.90
21282;DHT22;10800;53.096;18.328;2023-08-08T16:34:14;18.00;97.50
21282;DHT22;10800;53.096;18.328;2023-08-08T16:39:24;17.80;97.80
21282;DHT22;10800;53.096;18.328;2023-08-08T16:44:51;17.70;98.90
21282;DHT22;10800;53.096;18.328;2023-08-08T16:50:23;17.70;99.70
21282;DHT22;10800;53.096;18.328;2023-08-08T16:56:12;17.50;99.90
21282;DHT22;10800;53.096;18.328;2023-08-08T17:01:56;16.70;99.90
21282;DHT22;10800;53.096;18.328;2023-08-08T17:07:24;16.30;99.90
21282;DHT22;10800;53.096;18.328;2023-08-08T17:12:49;15.80;99.90
21282;DHT22;10800;53.096;18.328;2023-08-08T17:18:15;15.50;99.90
21282;DHT22;10800;53.096;18.328;2023-08-08T17:23:52;15.40;99.90
21282;DHT22;10800;53.096;18.328;2023-08-08T17:29:01;15.20;99.90
21282;DHT22;10800;53.096;18.328;2023-08-08T17:34:47;15.00;99.90
21282;DHT22;10800;53.096;18.328;2023-08-08T17:40:23;15.00;99.90
21282;DHT22;10800;53.096;18.328;2023-08-08T17:51:28;15.00;99.90
21282;DHT22;10800;53.096;18.328;2023-08-08T18:02:38;14.70;99.90
21282;DHT22;10800;53.096;18.328;2023-08-08T18:08:06;14.70;99.90
21282;DHT22;10800;53.096;18.328;2023-08-08T18:13:23;14.60;99.90
21282;DHT22;10800;53.096;18.328;2023-08-08T18:18:45;14.50;99.90
21282;DHT22;10800;53.096;18.328;2023-08-08T18:24:00;14.30;99.90
21282;DHT22;10800;53.096;18.328;2023-08-08T18:35:04;14.10;99.90
21282;DHT22;10800;53.096;18.328;2023-08-08T18:40:11;14.10;99.90
21282;DHT22;10800;53.096;18.328;2023-08-08T18:45:40;14.00;99.90
21282;DHT22;10800;53.096;18.328;2023-08-08T18:51:07;14.00;99.90
21282;DHT22;10800;53.096;18.328;2023-08-08T18:56:19;14.00;99.90
21282;DHT22;10800;53.096;18.328;2023-08-08T19:06:54;13.90;99.90
21282;DHT22;10800;53.096;18.328;2023-08-08T19:17:57;13.80;99.90
21282;DHT22;10800;53.096;18.328;2023-08-08T19:34:01;13.80;99.90
21282;DHT22;10800;53.096;18.328;2023-08-08T19:39:36;13.70;99.90
21282;DHT22;10800;53.096;18.328;2023-08-08T19:50:09;13.40;99.90
21282;DHT22;10800;53.096;18.328;2023-08-08T20:01:01;13.40;99.90
21282;DHT22;10800;53.096;18.328;2023-08-08T20:06:14;13.40;99.90
21282;DHT22;10800;53.096;18.328;2023-08-08T20:11:25;13.30;99.90
21282;DHT22;10800;53.096;18.328;2023-08-08T20:16:38;13.30;99.90
21282;DHT22;10800;53.096;18.328;2023-08-08T20:21:49;13.30;99.90
21282;DHT22;10800;53.096;18.328;2023-08-08T20:26:57;13.30;99.90
21282;DHT22;10800;53.096;18.328;2023-08-08T20:32:02;13.20;99.90
21282;DHT22;10800;53.096;18.328;2023-08-08T20:37:09;13.20;99.90
21282;DHT22;10800;53.096;18.328;2023-08-08T20:47:54;13.10;99.90
21282;DHT22;10800;53.096;18.328;2023-08-08T21:03:50;13.10;99.90
21282;DHT22;10800;53.096;18.328;2023-08-08T21:09:18;13.10;99.90
21282;DHT22;10800;53.096;18.328;2023-08-08T21:14:50;13.10;99.90
21282;DHT22;10800;53.096;18.328;2023-08-08T21:19:59;13.20;99.90
21282;DHT22;10800;53.096;18.328;2023-08-08T21:25:36;13.20;99.90
21282;DHT22;10800;53.096;18.328;2023-08-08T21:42:28;13.40;99.90
21282;DHT22;10800;53.096;18.328;2023-08-08T21:47:39;13.40;99.90
21282;DHT22;10800;53.096;18.328;2023-08-08T21:58:18;13.40;99.90
21282;DHT22;10800;53.096;18.328;2023-08-08T22:14:36;13.50;99.90
21282;DHT22;10800;53.096;18.328;2023-08-08T22:19:48;13.50;99.90
21282;DHT22;10800;53.096;18.328;2023-08-08T22:24:58;13.50;99.90
21282;DHT22;10800;53.096;18.328;2023-08-08T22:30:08;13.50;99.90
21282;DHT22;10800;53.096;18.328;2023-08-08T22:35:20;13.50;99.90
21282;DHT22;10800;53.096;18.328;2023-08-08T22:40:28;13.50;99.90
21282;DHT22;10800;53.096;18.328;2023-08-08T22:45:40;13.50;99.90
21282;DHT22;10800;53.096;18.328;2023-08-08T22:50:50;13.50;99.90
21282;DHT22;10800;53.096;18.328;2023-08-08T22:55:58;13.50;99.90
21282;DHT22;10800;53.096;18.328;2023-08-08T23:01:04;13.50;99.90
21282;DHT22;10800;53.096;18.328;2023-08-08T23:06:15;13.40;99.90
21282;DHT22;10800;53.096;18.328;2023-08-08T23:11:20;13.40;99.90
21282;DHT22;10800;53.096;18.328;2023-08-08T23:16:29;13.40;99.90
21282;DHT22;10800;53.096;18.328;2023-08-08T23:21:36;13.40;99.90
21282;DHT22;10800;53.096;18.328;2023-08-08T23:26:43;13.40;99.90
21282;DHT22;10800;53.096;18.328;2023-08-08T23:31:52;13.30;99.90
21282;DHT22;10800;53.096;18.328;2023-08-08T23:36:58;13.30;99.90
21282;DHT22;10800;53.096;18.328;2023-08-08T23:42:05;13.30;99.90
21282;DHT22;10800;53.096;18.328;2023-08-08T23:47:16;13.20;99.90
21282;DHT22;10800;53.096;18.328;2023-08-08T23:52:24;13.20;99.90
21282;DHT22;10800;53.096;18.328;2023-08-08T23:57:38;13.20;99.90
